Terminal Aerodrome Forecast
Issued by NWS Charleston, WV

Current Version | Previous Version | Graphics & Text | Print | Product List | Glossary On
Versions: 1 2 3 4 5 6 7 8 9 10 11 12 13 14 15 16 17 18 19 20 21 22 23 24 25 26 27 28 29 30
510
FTUS41 KRLX 120310 AAA
TAFBKW
TAF AMD
KBKW 120310Z 1203/1224 18011KT P6SM SCT150
     FM120900 26010G18KT P6SM OVC040
     FM121100 27013G20KT P6SM OVC030
     FM121400 29014G22KT 2SM BLSN BKN006 BKN015
     FM121800 30016G32KT 4SM BLSN SCT006 BKN015
     FM122000 29016G32KT 5SM -SHSN BKN025=

USA.gov is the U.S. government's official web portal to all federal, state and local government web resources and services.